createdAt,value
2018-02-07T00:02:24.194Z,99640.92
2018-02-07T00:04:50.442Z,99634.48
2018-02-07T00:07:16.750Z,99645.80
2018-02-07T00:09:43.054Z,99639.45
2018-02-07T00:12:09.415Z,99643.13
2018-02-07T00:14:35.718Z,99641.75
2018-02-07T00:17:01.994Z,99644.77
2018-02-07T00:19:28.334Z,99653.20
2018-02-07T00:21:55.336Z,99649.52
2018-02-07T00:24:21.591Z,99651.68
2018-02-07T00:26:47.856Z,99650.43
2018-02-07T00:29:14.837Z,99657.40
2018-02-07T00:31:41.092Z,99648.42
2018-02-07T00:34:07.380Z,99645.49
2018-02-07T00:36:33.655Z,99646.47
2018-02-07T00:38:59.939Z,99645.16
2018-02-07T00:41:26.305Z,99641.47
2018-02-07T00:43:52.580Z,99640.77
2018-02-07T00:48:52.494Z,99639.76
2018-02-07T00:51:19.595Z,99639.55
2018-02-07T00:53:45.923Z,99635.50
2018-02-07T00:56:12.140Z,99615.91
2018-02-07T00:58:38.411Z,99634.03
2018-02-07T01:01:04.793Z,99632.53
2018-02-07T01:03:31.142Z,99638.02
2018-02-07T01:05:57.432Z,99640.23
2018-02-07T01:08:24.435Z,99643.25
2018-02-07T01:10:50.754Z,99647.26
2018-02-07T01:13:17.043Z,99648.80
2018-02-07T01:15:44.042Z,99654.95
2018-02-07T01:18:10.288Z,99651.89
2018-02-07T01:20:36.579Z,99651.61
2018-02-07T01:23:02.879Z,99654.23
2018-02-07T01:25:29.856Z,99659.60
2018-02-07T01:27:56.104Z,99653.30
2018-02-07T01:30:22.350Z,99657.45
2018-02-07T01:32:48.646Z,99644.33
2018-02-07T01:35:14.914Z,99649.08
2018-02-07T01:37:41.204Z,99644.69
2018-02-07T01:40:07.490Z,99638.78
2018-02-07T01:42:33.782Z,99642.75
2018-02-07T01:45:00.107Z,99641.54
2018-02-07T01:47:26.363Z,99638.30
2018-02-07T01:49:52.671Z,99639.03
2018-02-07T01:52:18.945Z,99638.51
2018-02-07T01:54:45.311Z,99642.47
2018-02-07T01:57:11.583Z,99643.36
2018-02-07T01:59:37.871Z,99641.30
2018-02-07T02:02:04.166Z,99645.73
2018-02-07T02:04:30.427Z,99639.02
2018-02-07T02:06:56.722Z,99634.17
2018-02-07T02:09:23.865Z,99632.16
2018-02-07T02:11:50.147Z,99634.88
2018-02-07T02:14:16.457Z,99630.88
2018-02-07T02:16:42.708Z,99633.41
2018-02-07T02:19:08.987Z,99634.45
2018-02-07T02:21:35.338Z,99636.92
2018-02-07T02:24:02.351Z,99638.91
2018-02-07T02:26:28.644Z,99633.22
2018-02-07T02:28:54.896Z,99632.80
2018-02-07T02:31:21.181Z,99632.44
2018-02-07T02:33:48.189Z,99635.02
2018-02-07T02:36:33.196Z,99624.79
2018-02-07T02:39:00.202Z,99628.77
2018-02-07T02:41:26.489Z,99629.81
2018-02-07T02:43:52.768Z,99632.28
2018-02-07T02:46:19.066Z,99629.34
2018-02-07T02:48:45.461Z,99635.72
2018-02-07T02:51:12.519Z,99633.44
2018-02-07T02:53:39.585Z,99627.06
2018-02-07T02:56:05.943Z,99635.94
2018-02-07T02:58:32.204Z,99639.79
2018-02-07T03:00:58.502Z,99635.79
2018-02-07T03:03:24.784Z,99635.42
2018-02-07T03:05:51.882Z,99631.73
2018-02-07T03:08:18.270Z,99628.73
2018-02-07T03:10:44.601Z,99628.82
2018-02-07T03:13:11.907Z,99629.59
2018-02-07T03:15:38.639Z,99629.61
2018-02-07T03:18:04.979Z,99630.95
2018-02-07T03:20:31.439Z,99633.57
2018-02-07T03:22:57.873Z,99630.66
2018-02-07T03:25:24.231Z,99636.41
2018-02-07T03:27:51.271Z,99635.09
2018-02-07T03:30:18.370Z,99640.26
2018-02-07T03:32:44.725Z,99636.80
2018-02-07T03:35:11.089Z,99643.86
2018-02-07T03:37:38.143Z,99642.47
2018-02-07T03:40:05.176Z,99642.27
2018-02-07T03:42:32.224Z,99631.95
2018-02-07T03:44:59.376Z,99631.22
2018-02-07T03:47:26.478Z,99636.37
2018-02-07T03:49:52.764Z,99636.35
2018-02-07T03:52:20.235Z,99637.63
2018-02-07T03:54:46.521Z,99638.89
2018-02-07T03:57:12.816Z,99634.29
2018-02-07T03:59:39.112Z,99629.47
2018-02-07T04:02:06.193Z,99628.58
2018-02-07T04:04:32.489Z,99625.59
2018-02-07T04:06:59.536Z,99629.47
2018-02-07T04:09:25.940Z,99620.53
2018-02-07T04:11:53.710Z,99621.11
2018-02-07T04:14:20.052Z,99621.41
2018-02-07T04:16:46.291Z,99622.23
2018-02-07T04:19:13.335Z,99627.32
2018-02-07T04:21:40.348Z,99623.02
2018-02-07T04:24:06.610Z,99621.18
2018-02-07T04:26:33.634Z,99622.77
2018-02-07T04:28:59.954Z,99624.83
2018-02-07T04:31:26.211Z,99621.82
2018-02-07T04:33:52.512Z,99620.62
2018-02-07T04:36:18.771Z,99621.77
2018-02-07T04:38:45.831Z,99618.15
2018-02-07T04:41:12.951Z,99619.80
2018-02-07T04:43:39.329Z,99613.95
2018-02-07T04:46:05.617Z,99618.88
2018-02-07T04:48:31.947Z,99614.22
2018-02-07T04:50:58.257Z,99612.13
2018-02-07T04:53:24.563Z,99616.38
2018-02-07T04:55:50.835Z,99617.09
2018-02-07T04:58:17.154Z,99609.96
2018-02-07T05:00:43.492Z,99612.95
2018-02-07T05:03:09.814Z,99607.84
2018-02-07T05:05:36.147Z,99607.75
2018-02-07T05:08:02.422Z,99607.98
2018-02-07T05:10:29.432Z,99620.48
2018-02-07T05:12:55.718Z,99617.79
2018-02-07T05:15:21.996Z,99612.41
2018-02-07T05:17:48.360Z,99605.56
2018-02-07T05:20:15.446Z,99608.44
2018-02-07T05:22:41.734Z,99610.58
2018-02-07T05:25:08.747Z,99610.84
2018-02-07T05:27:35.068Z,99609.16
2018-02-07T05:30:01.347Z,99613.14
2018-02-07T05:32:28.353Z,99611.59
2018-02-07T05:34:54.673Z,99614.92
2018-02-07T05:37:21.005Z,99612.72
2018-02-07T05:39:47.268Z,99611.03
2018-02-07T05:42:13.551Z,99607.70
2018-02-07T05:44:39.827Z,99613.17
2018-02-07T05:47:06.154Z,99614.28
2018-02-07T05:49:32.442Z,99614.14
2018-02-07T05:51:58.719Z,99610.88
2018-02-07T05:54:25.731Z,99612.89
2018-02-07T05:56:52.956Z,99610.55
2018-02-07T05:59:19.284Z,99616.45
2018-02-07T06:01:45.560Z,99611.51
2018-02-07T06:04:11.884Z,99609.47
2018-02-07T06:06:38.189Z,99602.15
2018-02-07T06:09:04.491Z,99605.28
2018-02-07T06:11:30.786Z,99609.86
2018-02-07T06:13:57.102Z,99604.77
2018-02-07T06:16:23.407Z,99599.88
2018-02-07T06:18:49.650Z,99603.23
2018-02-07T06:21:15.957Z,99597.59
2018-02-07T06:23:42.204Z,99602.16
2018-02-07T06:26:08.472Z,99599.41
2018-02-07T06:28:36.235Z,99609.28
2018-02-07T06:31:02.479Z,99617.56
2018-02-07T06:33:28.756Z,99616.22
2018-02-07T06:35:55.021Z,99609.14
2018-02-07T06:38:21.324Z,99611.75
2018-02-07T06:40:47.641Z,99606.59
2018-02-07T06:43:13.923Z,99611.08
2018-02-07T06:45:40.247Z,99612.95
2018-02-07T06:48:08.038Z,99613.05
2018-02-07T06:50:42.120Z,99608.14
2018-02-07T06:53:08.423Z,99621.09
2018-02-07T06:55:34.680Z,99614.48
2018-02-07T06:58:01.139Z,99611.50
2018-02-07T07:00:27.521Z,99610.95
2018-02-07T07:02:53.933Z,99609.31
2018-02-07T07:05:20.231Z,99619.91
2018-02-07T07:07:47.137Z,99623.50
2018-02-07T07:10:13.467Z,99627.85
2018-02-07T07:12:39.999Z,99636.14
2018-02-07T07:15:06.319Z,99636.45
2018-02-07T07:17:32.588Z,99635.55
2018-02-07T07:19:58.936Z,99636.26
2018-02-07T07:22:25.296Z,99644.84
2018-02-07T07:24:51.622Z,99661.66
2018-02-07T07:27:17.964Z,99657.05
2018-02-07T07:29:44.284Z,99660.45
2018-02-07T07:32:10.645Z,99660.95
2018-02-07T07:34:36.940Z,99655.55
2018-02-07T07:37:03.966Z,99657.68
2018-02-07T07:39:30.266Z,99664.54
2018-02-07T07:41:56.658Z,99671.78
2018-02-07T07:44:23.007Z,99673.52
2018-02-07T07:46:49.279Z,99675.66
2018-02-07T07:49:16.415Z,99664.88
2018-02-07T07:54:16.356Z,99674.73
2018-02-07T07:56:42.688Z,99684.55
2018-02-07T07:59:09.039Z,99690.67
2018-02-07T08:01:35.320Z,99692.35
2018-02-07T08:04:01.594Z,99699.28
2018-02-07T08:06:27.884Z,99699.90
2018-02-07T08:08:54.150Z,99698.45
2018-02-07T08:11:20.386Z,99694.63
2018-02-07T08:13:46.696Z,99695.98
2018-02-07T08:16:13.024Z,99686.63
2018-02-07T08:18:39.270Z,99688.27
2018-02-07T08:21:05.544Z,99690.04
2018-02-07T08:23:31.818Z,99691.98
2018-02-07T08:25:58.097Z,99697.88
2018-02-07T08:28:24.392Z,99698.36
2018-02-07T08:30:50.763Z,99700.37
2018-02-07T08:33:17.037Z,99705.73
2018-02-07T08:35:43.378Z,99711.58
2018-02-07T08:38:09.661Z,99716.76
2018-02-07T08:40:35.923Z,99712.97
2018-02-07T08:43:02.200Z,99713.28
2018-02-07T08:45:28.488Z,99709.41
2018-02-07T08:47:54.740Z,99718.34
2018-02-07T08:50:21.811Z,99716.30
2018-02-07T08:52:48.804Z,99716.10
2018-02-07T08:55:15.056Z,99723.72
2018-02-07T08:57:41.361Z,99729.78
2018-02-07T09:00:07.705Z,99724.91
2018-02-07T09:02:33.948Z,99724.30
2018-02-07T09:05:00.268Z,99729.13
2018-02-07T09:07:26.642Z,99730.71
2018-02-07T09:09:52.942Z,99731.84
2018-02-07T09:12:19.276Z,99728.27
2018-02-07T09:14:45.603Z,99725.88
2018-02-07T09:17:11.978Z,99727.45
2018-02-07T09:19:38.249Z,99735.74
2018-02-07T09:22:04.561Z,99729.95
2018-02-07T09:24:30.812Z,99731.09
2018-02-07T09:26:57.077Z,99738.06
2018-02-07T09:29:24.218Z,99742.86
2018-02-07T09:31:50.640Z,99746.06
2018-02-07T09:34:16.898Z,99743.14
2018-02-07T09:36:43.895Z,99749.74
2018-02-07T09:39:10.177Z,99738.88
2018-02-07T09:41:36.446Z,99743.75
2018-02-07T09:44:02.931Z,99738.77
2018-02-07T09:46:30.094Z,99740.00
2018-02-07T09:48:57.258Z,99756.59
2018-02-07T09:51:23.532Z,99751.84
2018-02-07T09:53:49.843Z,99749.22
2018-02-07T09:56:16.156Z,99747.83
2018-02-07T09:58:42.720Z,99755.51
2018-02-07T10:01:09.069Z,99752.17
2018-02-07T10:03:35.354Z,99753.75
2018-02-07T10:06:01.612Z,99741.14
2018-02-07T10:08:27.888Z,99740.14
2018-02-07T10:10:54.148Z,99737.36
2018-02-07T10:13:20.895Z,99739.87
2018-02-07T10:15:47.322Z,99732.04
2018-02-07T10:18:13.628Z,99731.67
2018-02-07T10:20:40.634Z,99723.02
2018-02-07T10:23:07.043Z,99726.41
2018-02-07T10:25:33.371Z,99729.25
2018-02-07T10:27:59.627Z,99722.81
2018-02-07T10:30:25.931Z,99724.83
2018-02-07T10:32:52.167Z,99726.03
2018-02-07T10:35:18.497Z,99721.53
2018-02-07T10:37:44.761Z,99715.22
2018-02-07T10:40:11.067Z,99713.02
2018-02-07T10:42:37.347Z,99716.48
2018-02-07T10:45:03.677Z,99718.81
2018-02-07T10:47:30.676Z,99710.95
2018-02-07T10:49:57.036Z,99705.94
2018-02-07T10:52:23.352Z,99714.89
2018-02-07T10:54:49.616Z,99717.69
2018-02-07T10:57:15.872Z,99707.59
2018-02-07T10:59:42.128Z,99698.96
2018-02-07T11:02:08.452Z,99701.13
2018-02-07T11:04:34.764Z,99699.36
2018-02-07T11:07:01.075Z,99699.78
2018-02-07T11:09:27.382Z,99696.47
2018-02-07T11:11:54.449Z,99694.60
2018-02-07T11:14:20.732Z,99693.34
2018-02-07T11:16:47.126Z,99691.49
2018-02-07T11:19:13.414Z,99689.35
2018-02-07T11:21:39.690Z,99689.72
2018-02-07T11:24:05.945Z,99688.74
2018-02-07T11:26:32.249Z,99690.13
2018-02-07T11:28:58.498Z,99681.55
2018-02-07T11:31:24.797Z,99678.34
2018-02-07T11:33:51.099Z,99682.59
2018-02-07T11:36:18.137Z,99684.83
2018-02-07T11:38:44.453Z,99675.80
2018-02-07T11:41:11.671Z,99678.42
2018-02-07T11:43:38.024Z,99679.34
2018-02-07T11:46:04.385Z,99678.71
2018-02-07T11:48:30.744Z,99669.91
2018-02-07T11:50:57.764Z,99677.03
2018-02-07T11:53:24.057Z,99668.38
2018-02-07T11:55:50.419Z,99671.16
2018-02-07T11:58:16.756Z,99671.92
2018-02-07T12:00:43.784Z,99672.45
2018-02-07T12:03:10.252Z,99668.89
2018-02-07T12:05:36.566Z,99669.67
2018-02-07T12:08:03.794Z,99666.73
2018-02-07T12:10:30.097Z,99665.13
2018-02-07T12:12:57.110Z,99660.93
2018-02-07T12:15:23.391Z,99666.33
2018-02-07T12:17:49.675Z,99661.09
2018-02-07T12:20:15.915Z,99657.26
2018-02-07T12:22:42.971Z,99658.80
2018-02-07T12:25:09.962Z,99657.13
2018-02-07T12:27:36.276Z,99651.48
2018-02-07T12:30:02.529Z,99644.88
2018-02-07T12:32:28.791Z,99640.68
2018-02-07T12:34:55.812Z,99651.36
2018-02-07T12:37:22.094Z,99655.70
2018-02-07T12:39:55.310Z,99656.34
2018-02-07T12:42:21.607Z,99645.91
2018-02-07T12:44:47.881Z,99645.40
2018-02-07T12:47:14.167Z,99641.16
2018-02-07T12:49:40.433Z,99643.79
2018-02-07T12:52:06.707Z,99639.08
2018-02-07T12:54:33.855Z,99639.08
2018-02-07T12:57:00.856Z,99636.26
2018-02-07T12:59:27.135Z,99648.25
2018-02-07T13:01:54.134Z,99647.29
2018-02-07T13:04:20.426Z,99645.45
2018-02-07T13:06:47.425Z,99651.34
2018-02-07T13:09:13.736Z,99637.91
2018-02-07T13:11:40.030Z,99647.91
2018-02-07T13:14:07.016Z,99647.45
2018-02-07T13:16:33.312Z,99642.77
2018-02-07T13:19:00.299Z,99640.14
2018-02-07T13:21:26.592Z,99632.95
2018-02-07T13:23:53.563Z,99638.52
2018-02-07T13:26:19.899Z,99633.72
2018-02-07T13:28:46.169Z,99636.47
2018-02-07T13:31:12.443Z,99635.56
2018-02-07T13:33:38.745Z,99639.34
2018-02-07T13:36:05.928Z,99639.20
2018-02-07T13:38:32.168Z,99640.61
2018-02-07T13:40:58.485Z,99638.73
2018-02-07T13:43:24.800Z,99639.47
2018-02-07T13:45:51.049Z,99645.01
2018-02-07T13:48:17.271Z,99644.59
2018-02-07T13:50:43.519Z,99639.52
2018-02-07T13:53:10.132Z,99642.70
2018-02-07T13:55:36.368Z,99640.78
2018-02-07T13:58:02.616Z,99639.88
2018-02-07T14:00:28.873Z,99641.63
2018-02-07T14:02:55.128Z,99640.36
2018-02-07T14:05:22.142Z,99645.29
2018-02-07T14:07:48.397Z,99642.05
2018-02-07T14:10:14.740Z,99645.23
2018-02-07T14:12:40.949Z,99649.36
2018-02-07T14:15:07.196Z,99646.01
2018-02-07T14:17:34.696Z,99648.67
2018-02-07T14:20:01.001Z,99651.18
2018-02-07T14:22:27.990Z,99661.38
2018-02-07T14:24:54.257Z,99651.20
2018-02-07T14:27:20.705Z,99654.80
2018-02-07T14:29:47.759Z,99657.19
2018-02-07T14:32:14.791Z,99650.34
2018-02-07T14:34:41.785Z,99650.06
2018-02-07T14:37:08.067Z,99649.25
2018-02-07T14:39:35.119Z,99645.95
2018-02-07T14:42:02.152Z,99648.19
2018-02-07T14:44:28.419Z,99645.53
2018-02-07T14:46:54.672Z,99655.41
2018-02-07T14:49:20.948Z,99652.31
2018-02-07T14:51:47.960Z,99657.64
2018-02-07T14:54:14.204Z,99652.68
2018-02-07T14:56:40.444Z,99656.21
2018-02-07T14:59:06.708Z,99658.39
2018-02-07T15:01:32.976Z,99655.25
2018-02-07T15:03:59.230Z,99661.64
2018-02-07T15:06:26.253Z,99666.80
2018-02-07T15:08:52.523Z,99671.31
2018-02-07T15:11:19.564Z,99675.92
2018-02-07T15:13:45.821Z,99674.48
2018-02-07T15:16:12.081Z,99674.36
2018-02-07T15:18:38.363Z,99668.69
2018-02-07T15:21:04.671Z,99668.23
2018-02-07T15:23:30.951Z,99677.55
2018-02-07T15:25:57.211Z,99676.20
2018-02-07T15:28:23.459Z,99673.89
2018-02-07T15:30:49.729Z,99672.87
2018-02-07T15:33:16.044Z,99672.58
2018-02-07T15:35:43.094Z,99677.45
2018-02-07T15:38:10.196Z,99682.66
2018-02-07T15:40:36.524Z,99679.56
2018-02-07T15:43:02.787Z,99685.54
2018-02-07T15:45:29.842Z,99688.06
2018-02-07T15:47:56.124Z,99680.26
2018-02-07T15:50:22.404Z,99683.98
2018-02-07T15:52:49.494Z,99689.72
2018-02-07T15:55:15.771Z,99695.23
2018-02-07T15:57:42.140Z,99693.30
2018-02-07T16:00:08.841Z,99690.63
2018-02-07T16:02:35.121Z,99697.41
2018-02-07T16:05:01.385Z,99693.49
2018-02-07T16:07:27.641Z,99691.73
2018-02-07T16:09:53.957Z,99702.77
2018-02-07T16:12:20.233Z,99700.52
2018-02-07T16:14:47.693Z,99700.25
2018-02-07T16:17:14.095Z,99698.55
2018-02-07T16:19:40.374Z,99699.25
2018-02-07T16:22:06.664Z,99704.44
2018-02-07T16:24:33.723Z,99708.59
2018-02-07T16:27:00.773Z,99705.07
2018-02-07T16:29:27.098Z,99714.02
2018-02-07T16:31:54.108Z,99710.34
2018-02-07T16:34:20.364Z,99706.06
2018-02-07T16:36:47.404Z,99709.70
2018-02-07T16:39:13.890Z,99715.46
2018-02-07T16:41:40.207Z,99722.27
2018-02-07T16:44:06.537Z,99719.95
2018-02-07T16:46:32.847Z,99730.07
2018-02-07T16:48:59.895Z,99728.47
2018-02-07T16:51:27.015Z,99731.50
2018-02-07T16:53:53.296Z,99737.45
2018-02-07T16:56:19.561Z,99738.27
2018-02-07T16:58:45.839Z,99734.17
2018-02-07T17:01:12.919Z,99733.30
2018-02-07T17:03:39.334Z,99741.69
2018-02-07T17:06:05.628Z,99746.98
2018-02-07T17:08:31.901Z,99753.17
2018-02-07T17:10:58.210Z,99749.81
2018-02-07T17:13:25.324Z,99753.04
2018-02-07T17:15:51.724Z,99763.70
2018-02-07T17:18:18.014Z,99755.38
2018-02-07T17:20:45.352Z,99770.34
2018-02-07T17:23:11.622Z,99763.82
2018-02-07T17:25:37.869Z,99776.48
2018-02-07T17:28:04.124Z,99774.95
2018-02-07T17:30:30.398Z,99780.46
2018-02-07T17:32:57.438Z,99769.97
2018-02-07T17:35:24.513Z,99782.39
2018-02-07T17:37:50.811Z,99787.80
2018-02-07T17:40:17.861Z,99787.09
2018-02-07T17:42:44.943Z,99788.42
2018-02-07T17:45:12.362Z,99787.84
2018-02-07T17:47:38.708Z,99797.82
2018-02-07T17:50:06.228Z,99801.16
2018-02-07T17:52:32.494Z,99803.32
2018-02-07T17:54:59.583Z,99805.01
2018-02-07T17:57:25.898Z,99811.68
2018-02-07T17:59:52.292Z,99802.97
2018-02-07T18:02:19.857Z,99819.61
2018-02-07T18:04:46.986Z,99818.96
2018-02-07T18:07:13.254Z,99819.60
2018-02-07T18:09:40.381Z,99819.00
2018-02-07T18:12:07.625Z,99820.89
2018-02-07T18:14:33.985Z,99829.38
2018-02-07T18:17:01.083Z,99814.55
2018-02-07T18:19:27.331Z,99832.55
2018-02-07T18:21:53.599Z,99829.64
2018-02-07T18:24:19.941Z,99826.61
2018-02-07T18:26:46.282Z,99828.05
2018-02-07T18:29:13.305Z,99831.37
2018-02-07T18:31:39.584Z,99834.92
2018-02-07T18:34:05.868Z,99830.29
2018-02-07T18:36:32.135Z,99838.05
2018-02-07T18:38:58.431Z,99842.66
2018-02-07T18:41:24.746Z,99853.85
2018-02-07T18:43:51.780Z,99850.94
2018-02-07T18:46:19.040Z,99852.41
2018-02-07T18:48:45.406Z,99848.31
2018-02-07T18:51:11.738Z,99850.36
2018-02-07T18:53:38.028Z,99846.15
2018-02-07T18:56:04.339Z,99853.42
2018-02-07T18:58:30.667Z,99854.87
2018-02-07T19:00:56.941Z,99852.94
2018-02-07T19:03:24.086Z,99849.51
2018-02-07T19:05:51.288Z,99852.06
2018-02-07T19:08:17.829Z,99857.95
2018-02-07T19:10:44.169Z,99854.89
2018-02-07T19:13:10.501Z,99852.61
2018-02-07T19:15:36.877Z,99852.00
2018-02-07T19:18:03.981Z,99853.09
2018-02-07T19:20:30.402Z,99855.17
2018-02-07T19:22:56.740Z,99859.89
2018-02-07T19:25:23.287Z,99866.22
2018-02-07T19:27:49.735Z,99861.41
2018-02-07T19:30:16.171Z,99862.51
2018-02-07T19:32:42.622Z,99863.77
2018-02-07T19:35:09.751Z,99857.70
2018-02-07T19:37:36.226Z,99858.55
2018-02-07T19:40:02.527Z,99857.31
2018-02-07T19:42:30.675Z,99863.69
2018-02-07T19:44:57.026Z,99864.92
2018-02-07T19:47:24.165Z,99858.73
2018-02-07T19:49:50.491Z,99854.46
2018-02-07T19:52:17.232Z,99856.95
2018-02-07T19:54:43.638Z,99859.41
2018-02-07T19:57:09.938Z,99858.13
2018-02-07T19:59:36.994Z,99856.09
2018-02-07T20:02:03.308Z,99862.38
2018-02-07T20:04:30.428Z,99860.92
2018-02-07T20:06:56.710Z,99865.93
2018-02-07T20:09:23.013Z,99869.09
2018-02-07T20:11:49.290Z,99865.93
2018-02-07T20:14:15.606Z,99869.26
2018-02-07T20:16:44.026Z,99868.70
2018-02-07T20:19:10.565Z,99874.98
2018-02-07T20:21:36.881Z,99872.20
2018-02-07T20:24:03.183Z,99869.80
2018-02-07T20:26:29.521Z,99869.59
2018-02-07T20:28:56.886Z,99871.39
2018-02-07T20:31:23.236Z,99861.03
2018-02-07T20:33:49.506Z,99865.51
2018-02-07T20:36:16.509Z,99864.48
2018-02-07T20:38:42.792Z,99866.00
2018-02-07T20:41:09.862Z,99868.48
2018-02-07T20:43:36.167Z,99867.77
2018-02-07T20:46:03.213Z,99859.59
2018-02-07T20:48:30.279Z,99859.13
2018-02-07T20:50:56.565Z,99865.88
2018-02-07T20:53:22.855Z,99861.36
2018-02-07T20:55:49.134Z,99861.36
2018-02-07T20:58:16.031Z,99860.94
2018-02-07T21:00:42.325Z,99867.94
2018-02-07T21:03:09.402Z,99861.83
2018-02-07T21:05:35.736Z,99872.47
2018-02-07T21:08:02.085Z,99858.80
2018-02-07T21:10:28.400Z,99867.14
2018-02-07T21:12:54.669Z,99859.84
2018-02-07T21:15:20.951Z,99866.87
2018-02-07T21:17:47.261Z,99868.30
2018-02-07T21:20:14.253Z,99877.00
2018-02-07T21:22:40.551Z,99874.78
2018-02-07T21:25:07.810Z,99874.78
2018-02-07T21:27:34.079Z,99882.61
2018-02-07T21:30:00.362Z,99883.25
2018-02-07T21:32:26.717Z,99894.22
2018-02-07T21:34:53.001Z,99891.49
2018-02-07T21:37:20.081Z,99893.38
2018-02-07T21:39:46.320Z,99892.72
2018-02-07T21:42:12.644Z,99891.03
2018-02-07T21:44:38.980Z,99893.55
2018-02-07T21:47:05.263Z,99889.74
2018-02-07T21:49:32.392Z,99897.20
2018-02-07T21:51:58.690Z,99894.02
2018-02-07T21:54:24.962Z,99895.41
2018-02-07T21:56:51.228Z,99900.88
2018-02-07T21:59:17.556Z,99913.42
2018-02-07T22:01:44.633Z,99902.64
2018-02-07T22:04:10.913Z,99903.06
2018-02-07T22:06:37.205Z,99903.04
2018-02-07T22:09:03.514Z,99905.38
2018-02-07T22:11:29.825Z,99901.77
2018-02-07T22:13:56.846Z,99906.08
2018-02-07T22:16:23.121Z,99909.28
2018-02-07T22:18:49.395Z,99908.34
2018-02-07T22:21:15.701Z,99909.42
2018-02-07T22:23:42.033Z,99904.17
2018-02-07T22:26:08.313Z,99903.95
2018-02-07T22:28:35.375Z,99913.53
2018-02-07T22:31:02.356Z,99914.28
2018-02-07T22:33:28.668Z,99921.33
2018-02-07T22:35:54.912Z,99921.61
2018-02-07T22:38:21.215Z,99924.39
2018-02-07T22:40:47.502Z,99928.53
2018-02-07T22:43:13.768Z,99934.45
2018-02-07T22:45:40.786Z,99936.31
2018-02-07T22:48:07.060Z,99931.73
2018-02-07T22:50:33.282Z,99937.72
2018-02-07T22:52:59.560Z,99937.72
2018-02-07T22:55:25.812Z,99938.77
2018-02-07T22:57:52.071Z,99935.72
2018-02-07T23:00:18.367Z,99924.78
2018-02-07T23:02:45.417Z,99946.32
2018-02-07T23:05:11.698Z,99947.59
2018-02-07T23:07:37.955Z,99943.66
2018-02-07T23:10:04.197Z,99943.19
2018-02-07T23:12:30.480Z,99945.11
2018-02-07T23:14:56.754Z,99944.98
2018-02-07T23:17:23.030Z,99953.98
2018-02-07T23:19:49.257Z,99960.55
2018-02-07T23:22:15.511Z,99955.16
2018-02-07T23:24:41.756Z,99966.52
2018-02-07T23:27:07.991Z,99973.45
2018-02-07T23:29:34.233Z,99978.57
2018-02-07T23:32:00.558Z,99980.64
2018-02-07T23:34:26.807Z,99977.98
2018-02-07T23:36:53.044Z,99984.28
2018-02-07T23:39:20.040Z,99984.50
2018-02-07T23:41:46.287Z,99984.30
2018-02-07T23:44:12.528Z,99981.41
2018-02-07T23:46:38.788Z,99978.27
2018-02-07T23:49:05.084Z,99980.92
2018-02-07T23:51:31.322Z,99980.55
2018-02-07T23:53:57.574Z,99971.13
2018-02-07T23:56:24.580Z,99975.69
2018-02-07T23:58:50.808Z,99969.33
